createdAt,value
2024-01-06T00:04:44.472Z,99678.81
2024-01-06T00:12:10.312Z,99661.00
2024-01-06T00:17:02.401Z,99699.28
2024-01-06T00:21:54.503Z,99703.19
2024-01-06T00:26:46.328Z,99701.44
2024-01-06T00:31:38.304Z,99703.16
2024-01-06T00:36:31.173Z,99703.78
2024-01-06T00:41:23.056Z,99720.72
2024-01-06T00:46:14.896Z,99704.66
2024-01-06T00:51:07.326Z,99713.47
2024-01-06T00:55:59.327Z,99724.75
2024-01-06T01:00:51.324Z,99721.16
2024-01-06T01:05:43.477Z,99720.50
2024-01-06T01:10:35.525Z,99702.47
2024-01-06T01:15:27.430Z,99725.72
2024-01-06T01:20:19.620Z,99732.78
2024-01-06T01:25:13.466Z,99737.38
2024-01-06T01:30:06.941Z,99630.66
2024-01-06T01:34:59.142Z,99739.47
2024-01-06T01:39:51.131Z,99751.00
2024-01-06T01:44:43.030Z,99753.03
2024-01-06T01:49:35.385Z,99722.44
2024-01-06T01:54:28.359Z,99755.38
2024-01-06T01:59:21.515Z,99755.13
2024-01-06T02:04:14.451Z,99761.72
2024-01-06T02:09:06.952Z,99767.75
2024-01-06T02:13:59.086Z,99752.28
2024-01-06T02:18:51.324Z,99769.75
2024-01-06T02:23:43.475Z,99773.94
2024-01-06T02:28:35.472Z,99767.44
2024-01-06T02:33:27.706Z,99771.94
2024-01-06T02:38:19.710Z,99727.69
2024-01-06T02:43:11.755Z,99784.69
2024-01-06T02:48:04.157Z,99761.47
2024-01-06T02:52:56.219Z,99777.28
2024-01-06T02:57:48.267Z,99805.28
2024-01-06T03:02:43.096Z,99792.00
2024-01-06T03:07:35.094Z,99793.81
2024-01-06T03:12:27.177Z,99829.34
2024-01-06T03:17:19.340Z,99829.44
2024-01-06T03:22:11.313Z,99839.84
2024-01-06T03:27:03.778Z,99837.00
2024-01-06T03:31:55.687Z,99838.59
2024-01-06T03:36:47.856Z,99840.56
2024-01-06T03:41:40.018Z,99838.91
2024-01-06T03:46:31.945Z,99827.56
2024-01-06T03:51:24.610Z,99799.03
2024-01-06T03:56:16.893Z,99810.06
2024-01-06T04:01:08.864Z,99842.09
2024-01-06T04:06:01.012Z,99849.97
2024-01-06T04:10:53.013Z,99827.22
2024-01-06T04:15:45.801Z,99859.06
2024-01-06T04:20:38.438Z,99854.59
2024-01-06T04:25:30.273Z,99835.91
2024-01-06T04:30:22.577Z,99845.63
2024-01-06T04:35:14.959Z,99867.66
2024-01-06T04:40:07.543Z,99867.81
2024-01-06T04:44:59.659Z,99874.41
2024-01-06T04:49:51.979Z,99843.88
2024-01-06T04:54:44.097Z,99872.75
2024-01-06T04:59:36.143Z,99823.06
2024-01-06T05:04:28.280Z,99813.34
2024-01-06T05:09:20.356Z,99811.91
2024-01-06T05:14:13.073Z,99883.16
2024-01-06T05:19:05.160Z,99891.72
2024-01-06T05:23:57.575Z,99785.16
2024-01-06T05:28:50.142Z,99887.19
2024-01-06T05:33:42.209Z,99885.50
2024-01-06T05:38:34.181Z,99923.66
2024-01-06T05:43:26.327Z,99930.03
2024-01-06T05:48:18.684Z,99886.78
2024-01-06T05:53:11.979Z,99915.38
2024-01-06T05:58:05.203Z,99929.75
2024-01-06T06:02:57.224Z,99966.34
2024-01-06T06:07:49.252Z,99965.53
2024-01-06T06:12:41.306Z,99964.03
2024-01-06T06:17:34.299Z,99990.28
2024-01-06T06:22:32.103Z,99990.69
2024-01-06T06:27:25.211Z,99939.22
2024-01-06T06:32:17.918Z,100018.44
2024-01-06T06:37:10.039Z,100021.97
2024-01-06T06:42:02.692Z,100030.34
2024-01-06T06:46:54.615Z,100037.81
2024-01-06T06:51:50.017Z,100042.28
2024-01-06T06:56:42.503Z,99991.66
2024-01-06T07:01:35.610Z,100026.63
2024-01-06T07:06:27.660Z,100043.47
2024-01-06T07:11:20.542Z,100076.34
2024-01-06T07:16:19.121Z,100057.50
2024-01-06T07:21:14.057Z,100083.44
2024-01-06T07:26:06.534Z,100094.31
2024-01-06T07:30:58.701Z,100090.06
2024-01-06T07:35:54.179Z,100102.78
2024-01-06T07:40:46.086Z,100114.97
2024-01-06T07:45:38.866Z,100121.97
2024-01-06T07:50:30.952Z,100124.25
2024-01-06T07:55:22.922Z,100119.59
2024-01-06T08:00:17.704Z,100084.69
2024-01-06T08:05:10.890Z,100142.47
2024-01-06T08:10:06.542Z,100057.09
2024-01-06T08:14:58.705Z,100179.41
2024-01-06T08:19:50.909Z,100189.41
2024-01-06T08:24:43.004Z,100199.81
2024-01-06T08:29:35.839Z,100206.19
2024-01-06T08:34:32.161Z,100222.44
2024-01-06T08:39:26.304Z,100227.56
2024-01-06T08:44:18.193Z,100242.88
2024-01-06T08:49:10.496Z,100228.88
2024-01-06T08:54:06.005Z,100239.25
2024-01-06T08:58:58.481Z,100244.53
2024-01-06T09:03:51.449Z,100261.88
2024-01-06T09:08:43.498Z,100218.78
2024-01-06T09:13:35.566Z,100273.78
2024-01-06T09:18:29.657Z,100277.13
2024-01-06T09:23:25.168Z,100285.59
2024-01-06T09:28:17.897Z,100291.25
2024-01-06T09:33:10.400Z,100295.56
2024-01-06T09:38:02.688Z,100286.75
2024-01-06T09:42:55.616Z,100316.59
2024-01-06T09:47:52.727Z,100304.59
2024-01-06T09:52:50.674Z,100321.47
2024-01-06T09:57:42.818Z,100311.00
2024-01-06T10:02:34.990Z,100335.19
2024-01-06T10:07:30.667Z,100340.88
2024-01-06T10:12:26.786Z,100327.75
2024-01-06T10:17:19.703Z,100333.97
2024-01-06T10:22:12.692Z,100279.19
2024-01-06T10:27:05.494Z,100315.81
2024-01-06T10:31:59.334Z,100345.09
2024-01-06T10:36:55.383Z,100345.91
2024-01-06T10:41:50.002Z,100353.69
2024-01-06T10:46:43.145Z,100234.38
2024-01-06T10:51:35.858Z,100319.09
2024-01-06T10:56:31.576Z,100343.72
2024-01-06T11:01:30.418Z,100178.19
2024-01-06T11:06:23.961Z,100347.31
2024-01-06T11:11:18.208Z,100347.31
2024-01-06T11:16:11.020Z,100351.53
2024-01-06T11:21:29.348Z,100350.94
2024-01-06T11:26:21.478Z,100360.00
2024-01-06T11:31:14.774Z,100356.63
2024-01-06T11:36:11.062Z,100339.38
2024-01-06T11:41:03.216Z,100352.09
2024-01-06T11:46:02.030Z,100357.47
2024-01-06T11:50:54.226Z,100349.38
2024-01-06T11:55:46.369Z,100360.81
2024-01-06T12:00:41.491Z,100340.75
2024-01-06T12:05:34.231Z,100357.72
2024-01-06T12:10:29.149Z,100359.38
2024-01-06T12:15:21.200Z,100368.50
2024-01-06T12:20:13.545Z,100298.50
2024-01-06T12:25:07.746Z,100368.28
2024-01-06T12:29:59.834Z,100325.53
2024-01-06T12:34:52.350Z,100376.06
2024-01-06T12:39:46.739Z,100346.09
2024-01-06T12:44:40.544Z,100387.34
2024-01-06T12:49:33.546Z,100344.91
2024-01-06T12:54:26.643Z,100398.81
2024-01-06T12:59:20.150Z,100398.78
2024-01-06T13:04:12.764Z,100332.88
2024-01-06T13:09:07.651Z,100394.94
2024-01-06T13:13:59.798Z,100404.59
2024-01-06T13:24:05.672Z,100361.19
2024-01-06T13:28:57.802Z,100356.97
2024-01-06T13:33:50.100Z,100415.13
2024-01-06T13:38:45.589Z,100403.81
2024-01-06T13:43:50.027Z,100434.13
2024-01-06T13:48:50.670Z,100349.78
2024-01-06T13:53:48.865Z,100455.25
2024-01-06T13:58:45.923Z,100451.63
2024-01-06T14:03:42.414Z,100455.25
2024-01-06T14:08:51.338Z,100434.34
2024-01-06T14:13:51.389Z,100456.44
2024-01-06T14:18:46.251Z,100462.28
2024-01-06T14:23:48.980Z,100471.53
2024-01-06T14:28:41.588Z,100489.63
2024-01-06T14:33:36.297Z,100502.63
2024-01-06T14:38:28.496Z,100506.25
2024-01-06T14:43:21.933Z,100496.16
2024-01-06T14:48:13.990Z,100521.78
2024-01-06T14:53:06.346Z,100523.53
2024-01-06T14:57:58.533Z,100473.66
2024-01-06T15:02:51.261Z,100505.56
2024-01-06T15:07:43.186Z,100527.41
2024-01-06T15:12:35.617Z,100560.63
2024-01-06T15:17:27.661Z,100559.75
2024-01-06T15:22:19.916Z,100569.34
2024-01-06T15:27:12.300Z,100519.97
2024-01-06T15:32:04.946Z,100487.94
2024-01-06T15:36:57.090Z,100587.94
2024-01-06T15:42:01.947Z,100550.69
2024-01-06T15:46:58.744Z,100617.78
2024-01-06T15:51:51.086Z,100577.41
2024-01-06T15:56:43.123Z,100589.75
2024-01-06T16:01:35.632Z,100603.84
2024-01-06T16:06:28.551Z,100607.19
2024-01-06T16:11:21.257Z,100541.31
2024-01-06T16:16:14.861Z,100619.19
2024-01-06T16:21:07.294Z,100623.72
2024-01-06T16:26:00.299Z,100625.72
2024-01-06T16:30:54.079Z,100601.00
2024-01-06T16:35:47.619Z,100618.94
2024-01-06T16:40:42.823Z,100577.69
2024-01-06T16:45:35.414Z,100637.75
2024-01-06T16:50:27.456Z,100657.00
2024-01-06T16:55:20.060Z,100658.25
2024-01-06T17:00:13.102Z,100663.31
2024-01-06T17:05:06.270Z,100635.63
2024-01-06T17:10:01.389Z,100669.25
2024-01-06T17:14:53.696Z,100666.69
2024-01-06T17:19:48.544Z,100623.72
2024-01-06T17:24:40.934Z,100665.16
2024-01-06T17:29:33.859Z,100652.38
2024-01-06T17:34:27.030Z,100684.00
2024-01-06T17:39:20.874Z,100669.09
2024-01-06T17:44:14.028Z,100669.81
2024-01-06T17:49:07.846Z,100650.59
2024-01-06T17:54:02.250Z,100693.88
2024-01-06T17:58:54.777Z,100583.66
2024-01-06T18:03:47.099Z,100659.94
2024-01-06T18:08:39.508Z,100694.06
2024-01-06T18:13:31.658Z,100719.13
2024-01-06T18:18:23.948Z,100725.34
2024-01-06T18:23:17.701Z,100704.50
2024-01-06T18:28:09.895Z,100709.31
2024-01-06T18:33:02.011Z,100737.66
2024-01-06T18:37:55.227Z,100671.84
2024-01-06T18:42:47.348Z,100746.91
2024-01-06T18:47:43.037Z,100688.66
2024-01-06T18:52:35.366Z,100746.59
2024-01-06T18:57:27.552Z,100646.81
2024-01-06T19:02:19.914Z,100752.00
2024-01-06T19:07:11.930Z,100735.47
2024-01-06T19:12:04.580Z,100760.47
2024-01-06T19:16:56.686Z,100739.19
2024-01-06T19:21:49.853Z,100775.22
2024-01-06T19:26:42.822Z,100774.03
2024-01-06T19:31:36.053Z,100774.03
2024-01-06T19:36:28.034Z,100753.44
2024-01-06T19:41:20.249Z,100780.03
2024-01-06T19:46:13.051Z,100787.13
2024-01-06T19:51:06.106Z,100786.78
2024-01-06T19:56:02.782Z,100789.22
2024-01-06T20:00:55.069Z,100796.78
2024-01-06T20:05:47.231Z,100792.84
2024-01-06T20:10:39.350Z,100804.25
2024-01-06T20:15:32.360Z,100794.19
2024-01-06T20:20:24.707Z,100801.22
2024-01-06T20:25:16.982Z,100806.25
2024-01-06T20:30:10.278Z,100788.97
2024-01-06T20:35:02.459Z,100814.34
2024-01-06T20:39:55.914Z,100815.94
2024-01-06T20:44:48.348Z,100813.78
2024-01-06T20:49:41.150Z,100819.44
2024-01-06T20:54:33.159Z,100804.34
2024-01-06T20:59:27.498Z,100837.63
2024-01-06T21:04:19.473Z,100839.22
2024-01-06T21:09:11.683Z,100826.19
2024-01-06T21:14:03.949Z,100817.38
2024-01-06T21:18:57.173Z,100832.31
2024-01-06T21:23:49.801Z,100833.28
2024-01-06T21:28:43.689Z,100822.69
2024-01-06T21:33:36.528Z,100829.06
2024-01-06T21:38:31.785Z,100837.34
2024-01-06T21:43:24.183Z,100845.19
2024-01-06T21:48:16.693Z,100845.28
2024-01-06T21:53:08.582Z,100854.00
2024-01-06T21:58:01.646Z,100840.22
2024-01-06T22:02:54.131Z,100824.13
2024-01-06T22:07:46.165Z,100831.97
2024-01-06T22:12:38.363Z,100767.22
2024-01-06T22:17:32.073Z,100851.56
2024-01-06T22:22:25.876Z,100861.28
2024-01-06T22:27:18.013Z,100851.13
2024-01-06T22:32:10.660Z,100821.16
2024-01-06T22:37:03.571Z,100808.75
2024-01-06T22:41:57.505Z,100858.41
2024-01-06T22:46:49.665Z,100805.25
2024-01-06T22:51:41.512Z,100866.84
2024-01-06T22:56:33.664Z,100865.59
2024-01-06T23:01:25.832Z,100868.13
2024-01-06T23:06:18.532Z,100867.75
2024-01-06T23:11:15.244Z,100860.38
2024-01-06T23:16:07.680Z,100873.16
2024-01-06T23:21:00.495Z,100886.28
2024-01-06T23:25:53.461Z,100834.91
2024-01-06T23:30:45.640Z,100856.59
2024-01-06T23:35:38.613Z,100860.47
2024-01-06T23:40:30.710Z,100891.84
2024-01-06T23:45:23.737Z,100858.50
2024-01-06T23:50:15.712Z,100885.63
2024-01-06T23:55:08.201Z,100880.59
